sensor_id;sensor_type;location;lat;lon;timestamp;temperature;humidity
74153;DHT22;62505;46.070;14.492;2023-02-11T00:00:15;20.30;51.80
74153;DHT22;62505;46.070;14.492;2023-02-11T00:02:42;20.30;51.80
74153;DHT22;62505;46.070;14.492;2023-02-11T00:05:11;20.30;51.80
74153;DHT22;62505;46.070;14.492;2023-02-11T00:07:38;20.30;51.80
74153;DHT22;62505;46.070;14.492;2023-02-11T00:10:05;20.30;51.80
74153;DHT22;62505;46.070;14.492;2023-02-11T00:12:33;20.30;51.80
74153;DHT22;62505;46.070;14.492;2023-02-11T00:15:00;20.30;51.80
74153;DHT22;62505;46.070;14.492;2023-02-11T00:17:27;20.30;51.80
74153;DHT22;62505;46.070;14.492;2023-02-11T00:19:54;20.30;51.80
74153;DHT22;62505;46.070;14.492;2023-02-11T00:22:22;20.30;51.90
74153;DHT22;62505;46.070;14.492;2023-02-11T00:24:49;20.30;51.80
74153;DHT22;62505;46.070;14.492;2023-02-11T00:27:16;20.30;51.90
74153;DHT22;62505;46.070;14.492;2023-02-11T00:29:43;20.30;51.80
74153;DHT22;62505;46.070;14.492;2023-02-11T00:32:10;20.30;51.90
74153;DHT22;62505;46.070;14.492;2023-02-11T00:34:37;20.30;51.90
74153;DHT22;62505;46.070;14.492;2023-02-11T00:37:04;20.30;51.80
74153;DHT22;62505;46.070;14.492;2023-02-11T00:39:33;20.30;51.90
74153;DHT22;62505;46.070;14.492;2023-02-11T00:42:00;20.30;51.90
74153;DHT22;62505;46.070;14.492;2023-02-11T00:44:27;20.30;51.90
74153;DHT22;62505;46.070;14.492;2023-02-11T00:46:54;20.30;51.90
74153;DHT22;62505;46.070;14.492;2023-02-11T00:49:21;20.30;51.90
74153;DHT22;62505;46.070;14.492;2023-02-11T00:51:48;20.30;51.90
74153;DHT22;62505;46.070;14.492;2023-02-11T00:54:15;20.30;51.90
74153;DHT22;62505;46.070;14.492;2023-02-11T00:56:43;20.30;51.90
74153;DHT22;62505;46.070;14.492;2023-02-11T00:59:11;20.30;51.90
74153;DHT22;62505;46.070;14.492;2023-02-11T01:01:38;20.30;51.90
74153;DHT22;62505;46.070;14.492;2023-02-11T01:04:05;20.30;51.90
74153;DHT22;62505;46.070;14.492;2023-02-11T01:06:32;20.30;51.90
74153;DHT22;62505;46.070;14.492;2023-02-11T01:08:59;20.30;51.90
74153;DHT22;62505;46.070;14.492;2023-02-11T01:11:26;20.20;51.90
74153;DHT22;62505;46.070;14.492;2023-02-11T01:13:54;20.30;51.90
74153;DHT22;62505;46.070;14.492;2023-02-11T01:16:21;20.30;51.90
74153;DHT22;62505;46.070;14.492;2023-02-11T01:18:48;20.30;51.90
74153;DHT22;62505;46.070;14.492;2023-02-11T01:21:15;20.30;51.90
74153;DHT22;62505;46.070;14.492;2023-02-11T01:23:42;20.30;51.90
74153;DHT22;62505;46.070;14.492;2023-02-11T01:26:09;20.30;51.90
74153;DHT22;62505;46.070;14.492;2023-02-11T01:28:36;20.30;51.90
74153;DHT22;62505;46.070;14.492;2023-02-11T01:31:04;20.30;51.90
74153;DHT22;62505;46.070;14.492;2023-02-11T01:33:32;20.30;51.90
74153;DHT22;62505;46.070;14.492;2023-02-11T01:36:03;20.30;52.50
74153;DHT22;62505;46.070;14.492;2023-02-11T01:38:30;20.30;51.90
74153;DHT22;62505;46.070;14.492;2023-02-11T01:41:00;20.30;51.90
74153;DHT22;62505;46.070;14.492;2023-02-11T01:43:30;20.30;51.90
74153;DHT22;62505;46.070;14.492;2023-02-11T01:46:12;20.30;51.90
74153;DHT22;62505;46.070;14.492;2023-02-11T01:48:45;20.30;51.90
74153;DHT22;62505;46.070;14.492;2023-02-11T01:51:19;20.30;51.80
74153;DHT22;62505;46.070;14.492;2023-02-11T01:53:49;20.30;51.90
74153;DHT22;62505;46.070;14.492;2023-02-11T01:56:36;20.30;51.90
74153;DHT22;62505;46.070;14.492;2023-02-11T01:59:27;20.30;51.90
74153;DHT22;62505;46.070;14.492;2023-02-11T02:02:01;20.30;51.90
74153;DHT22;62505;46.070;14.492;2023-02-11T02:04:34;20.30;51.90
74153;DHT22;62505;46.070;14.492;2023-02-11T02:07:07;20.30;51.90
74153;DHT22;62505;46.070;14.492;2023-02-11T02:09:40;20.30;51.90
74153;DHT22;62505;46.070;14.492;2023-02-11T02:12:08;20.30;51.90
74153;DHT22;62505;46.070;14.492;2023-02-11T02:14:37;20.30;51.90
74153;DHT22;62505;46.070;14.492;2023-02-11T02:17:07;20.30;51.90
74153;DHT22;62505;46.070;14.492;2023-02-11T02:19:58;20.30;51.90
74153;DHT22;62505;46.070;14.492;2023-02-11T02:22:54;20.30;52.00
74153;DHT22;62505;46.070;14.492;2023-02-11T02:25:51;20.30;52.00
74153;DHT22;62505;46.070;14.492;2023-02-11T02:28:41;20.30;51.90
74153;DHT22;62505;46.070;14.492;2023-02-11T02:31:29;20.30;52.00
74153;DHT22;62505;46.070;14.492;2023-02-11T02:34:02;20.20;51.90
74153;DHT22;62505;46.070;14.492;2023-02-11T02:36:36;20.30;52.00
74153;DHT22;62505;46.070;14.492;2023-02-11T02:39:07;20.30;51.90
74153;DHT22;62505;46.070;14.492;2023-02-11T02:41:38;20.20;51.90
74153;DHT22;62505;46.070;14.492;2023-02-11T02:44:07;20.20;51.90
74153;DHT22;62505;46.070;14.492;2023-02-11T02:46:35;20.30;51.90
74153;DHT22;62505;46.070;14.492;2023-02-11T02:49:08;20.30;52.00
74153;DHT22;62505;46.070;14.492;2023-02-11T02:51:56;20.30;51.90
74153;DHT22;62505;46.070;14.492;2023-02-11T03:00:34;20.20;51.90
74153;DHT22;62505;46.070;14.492;2023-02-11T03:03:13;20.20;51.90
74153;DHT22;62505;46.070;14.492;2023-02-11T03:05:48;20.20;51.90
74153;DHT22;62505;46.070;14.492;2023-02-11T03:08:23;20.30;52.00
74153;DHT22;62505;46.070;14.492;2023-02-11T03:10:52;20.20;52.00
74153;DHT22;62505;46.070;14.492;2023-02-11T03:13:25;20.20;51.90
74153;DHT22;62505;46.070;14.492;2023-02-11T03:15:55;20.20;51.90
74153;DHT22;62505;46.070;14.492;2023-02-11T03:18:26;20.20;51.90
74153;DHT22;62505;46.070;14.492;2023-02-11T03:20:56;20.20;51.90
74153;DHT22;62505;46.070;14.492;2023-02-11T03:23:28;20.20;51.90
74153;DHT22;62505;46.070;14.492;2023-02-11T03:25:59;20.20;51.90
74153;DHT22;62505;46.070;14.492;2023-02-11T03:28:30;20.30;52.00
74153;DHT22;62505;46.070;14.492;2023-02-11T03:31:06;20.20;51.80
74153;DHT22;62505;46.070;14.492;2023-02-11T03:33:39;20.20;51.90
74153;DHT22;62505;46.070;14.492;2023-02-11T03:36:12;20.30;52.00
74153;DHT22;62505;46.070;14.492;2023-02-11T03:38:45;20.20;51.90
74153;DHT22;62505;46.070;14.492;2023-02-11T03:41:14;20.30;52.00
74153;DHT22;62505;46.070;14.492;2023-02-11T03:43:46;20.20;51.90
74153;DHT22;62505;46.070;14.492;2023-02-11T03:46:18;20.20;51.90
74153;DHT22;62505;46.070;14.492;2023-02-11T03:48:48;20.20;52.00
74153;DHT22;62505;46.070;14.492;2023-02-11T03:51:19;20.20;52.00
74153;DHT22;62505;46.070;14.492;2023-02-11T03:53:47;20.20;51.90
74153;DHT22;62505;46.070;14.492;2023-02-11T03:56:17;20.20;51.90
74153;DHT22;62505;46.070;14.492;2023-02-11T03:58:47;20.20;51.90
74153;DHT22;62505;46.070;14.492;2023-02-11T04:01:14;20.20;51.90
74153;DHT22;62505;46.070;14.492;2023-02-11T04:03:41;20.20;51.90
74153;DHT22;62505;46.070;14.492;2023-02-11T04:06:08;20.20;51.90
74153;DHT22;62505;46.070;14.492;2023-02-11T04:08:36;20.30;52.00
74153;DHT22;62505;46.070;14.492;2023-02-11T04:11:03;20.20;51.90
74153;DHT22;62505;46.070;14.492;2023-02-11T04:13:31;20.20;51.90
74153;DHT22;62505;46.070;14.492;2023-02-11T04:15:58;20.20;51.90
74153;DHT22;62505;46.070;14.492;2023-02-11T04:18:25;20.20;51.90
74153;DHT22;62505;46.070;14.492;2023-02-11T04:20:51;20.20;51.90
74153;DHT22;62505;46.070;14.492;2023-02-11T04:23:18;20.20;51.90
74153;DHT22;62505;46.070;14.492;2023-02-11T04:25:48;20.20;51.90
74153;DHT22;62505;46.070;14.492;2023-02-11T04:28:14;20.20;51.90
74153;DHT22;62505;46.070;14.492;2023-02-11T04:30:41;20.30;51.90
74153;DHT22;62505;46.070;14.492;2023-02-11T04:33:08;20.20;51.90
74153;DHT22;62505;46.070;14.492;2023-02-11T04:35:35;20.30;52.00
74153;DHT22;62505;46.070;14.492;2023-02-11T04:38:02;20.20;51.90
74153;DHT22;62505;46.070;14.492;2023-02-11T04:40:29;20.20;51.90
74153;DHT22;62505;46.070;14.492;2023-02-11T04:42:58;20.30;51.90
74153;DHT22;62505;46.070;14.492;2023-02-11T04:45:25;20.20;51.90
74153;DHT22;62505;46.070;14.492;2023-02-11T04:47:52;20.20;51.90
74153;DHT22;62505;46.070;14.492;2023-02-11T04:50:19;20.20;51.90
74153;DHT22;62505;46.070;14.492;2023-02-11T04:52:46;20.20;51.90
74153;DHT22;62505;46.070;14.492;2023-02-11T04:55:13;20.20;51.90
74153;DHT22;62505;46.070;14.492;2023-02-11T04:57:40;20.20;51.90
74153;DHT22;62505;46.070;14.492;2023-02-11T05:00:09;20.20;51.90
74153;DHT22;62505;46.070;14.492;2023-02-11T05:02:36;20.20;51.90
74153;DHT22;62505;46.070;14.492;2023-02-11T05:05:04;20.20;51.90
74153;DHT22;62505;46.070;14.492;2023-02-11T05:07:31;20.20;51.90
74153;DHT22;62505;46.070;14.492;2023-02-11T05:09:58;20.20;51.90
74153;DHT22;62505;46.070;14.492;2023-02-11T05:12:25;20.20;51.90
74153;DHT22;62505;46.070;14.492;2023-02-11T05:14:52;20.20;51.90
74153;DHT22;62505;46.070;14.492;2023-02-11T05:17:21;20.20;51.90
74153;DHT22;62505;46.070;14.492;2023-02-11T05:19:48;20.20;51.90
74153;DHT22;62505;46.070;14.492;2023-02-11T05:22:15;20.20;51.90
74153;DHT22;62505;46.070;14.492;2023-02-11T05:24:42;20.20;51.90
74153;DHT22;62505;46.070;14.492;2023-02-11T05:27:09;20.20;51.90
74153;DHT22;62505;46.070;14.492;2023-02-11T05:29:36;20.20;51.80
74153;DHT22;62505;46.070;14.492;2023-02-11T05:32:03;20.20;51.90
74153;DHT22;62505;46.070;14.492;2023-02-11T05:34:33;20.20;51.90
74153;DHT22;62505;46.070;14.492;2023-02-11T05:37:00;20.20;51.90
74153;DHT22;62505;46.070;14.492;2023-02-11T05:39:27;20.20;51.90
74153;DHT22;62505;46.070;14.492;2023-02-11T05:41:54;20.20;51.90
74153;DHT22;62505;46.070;14.492;2023-02-11T05:44:21;20.20;51.90
74153;DHT22;62505;46.070;14.492;2023-02-11T05:46:48;20.20;51.90
74153;DHT22;62505;46.070;14.492;2023-02-11T05:49:15;20.20;51.90
74153;DHT22;62505;46.070;14.492;2023-02-11T05:51:44;20.20;51.90
74153;DHT22;62505;46.070;14.492;2023-02-11T05:54:11;20.20;51.90
74153;DHT22;62505;46.070;14.492;2023-02-11T05:56:38;20.20;52.50
74153;DHT22;62505;46.070;14.492;2023-02-11T05:59:05;20.20;51.90
74153;DHT22;62505;46.070;14.492;2023-02-11T06:01:32;20.20;51.90
74153;DHT22;62505;46.070;14.492;2023-02-11T06:03:59;20.20;51.90
74153;DHT22;62505;46.070;14.492;2023-02-11T06:06:26;20.20;51.90
74153;DHT22;62505;46.070;14.492;2023-02-11T06:08:55;20.20;51.80
74153;DHT22;62505;46.070;14.492;2023-02-11T06:11:22;20.20;51.90
74153;DHT22;62505;46.070;14.492;2023-02-11T06:13:49;20.20;51.90
74153;DHT22;62505;46.070;14.492;2023-02-11T06:16:16;20.20;52.00
74153;DHT22;62505;46.070;14.492;2023-02-11T06:18:43;20.20;51.90
74153;DHT22;62505;46.070;14.492;2023-02-11T06:21:10;20.20;51.90
74153;DHT22;62505;46.070;14.492;2023-02-11T06:23:37;20.20;51.90
74153;DHT22;62505;46.070;14.492;2023-02-11T06:26:08;20.20;51.80
74153;DHT22;62505;46.070;14.492;2023-02-11T06:28:35;20.20;51.80
74153;DHT22;62505;46.070;14.492;2023-02-11T06:31:04;20.20;51.80
74153;DHT22;62505;46.070;14.492;2023-02-11T06:33:32;20.20;51.80
74153;DHT22;62505;46.070;14.492;2023-02-11T06:35:59;20.20;51.80
74153;DHT22;62505;46.070;14.492;2023-02-11T06:38:26;20.20;51.70
74153;DHT22;62505;46.070;14.492;2023-02-11T06:40:53;20.20;51.70
74153;DHT22;62505;46.070;14.492;2023-02-11T06:43:22;20.20;51.70
74153;DHT22;62505;46.070;14.492;2023-02-11T06:45:52;20.20;51.70
74153;DHT22;62505;46.070;14.492;2023-02-11T06:48:19;20.20;51.70
74153;DHT22;62505;46.070;14.492;2023-02-11T06:50:47;20.20;51.70
74153;DHT22;62505;46.070;14.492;2023-02-11T06:53:14;20.20;51.70
74153;DHT22;62505;46.070;14.492;2023-02-11T06:55:41;20.20;51.70
74153;DHT22;62505;46.070;14.492;2023-02-11T06:58:08;20.20;51.70
74153;DHT22;62505;46.070;14.492;2023-02-11T07:00:36;20.20;51.70
74153;DHT22;62505;46.070;14.492;2023-02-11T07:03:03;20.20;51.70
74153;DHT22;62505;46.070;14.492;2023-02-11T07:05:30;20.20;51.70
74153;DHT22;62505;46.070;14.492;2023-02-11T07:07:58;20.20;51.70
74153;DHT22;62505;46.070;14.492;2023-02-11T07:10:25;20.20;51.60
74153;DHT22;62505;46.070;14.492;2023-02-11T07:12:52;20.20;51.70
74153;DHT22;62505;46.070;14.492;2023-02-11T07:15:19;20.20;51.60
74153;DHT22;62505;46.070;14.492;2023-02-11T07:17:48;20.20;51.60
74153;DHT22;62505;46.070;14.492;2023-02-11T07:20:15;20.30;51.60
74153;DHT22;62505;46.070;14.492;2023-02-11T07:22:42;20.20;51.50
74153;DHT22;62505;46.070;14.492;2023-02-11T07:25:09;20.20;51.50
74153;DHT22;62505;46.070;14.492;2023-02-11T07:27:36;20.20;51.50
74153;DHT22;62505;46.070;14.492;2023-02-11T07:30:03;20.20;51.40
74153;DHT22;62505;46.070;14.492;2023-02-11T07:32:30;20.20;51.50
74153;DHT22;62505;46.070;14.492;2023-02-11T07:34:59;20.20;51.50
74153;DHT22;62505;46.070;14.492;2023-02-11T07:37:26;20.20;51.50
74153;DHT22;62505;46.070;14.492;2023-02-11T07:39:53;20.20;51.50
74153;DHT22;62505;46.070;14.492;2023-02-11T07:42:20;20.20;51.50
74153;DHT22;62505;46.070;14.492;2023-02-11T07:44:47;20.20;51.50
74153;DHT22;62505;46.070;14.492;2023-02-11T07:47:14;20.20;51.50
74153;DHT22;62505;46.070;14.492;2023-02-11T07:49:44;20.20;51.50
74153;DHT22;62505;46.070;14.492;2023-02-11T07:52:13;20.20;51.50
74153;DHT22;62505;46.070;14.492;2023-02-11T07:54:40;20.20;51.60
74153;DHT22;62505;46.070;14.492;2023-02-11T07:57:07;20.20;51.50
74153;DHT22;62505;46.070;14.492;2023-02-11T07:59:34;20.20;51.60
74153;DHT22;62505;46.070;14.492;2023-02-11T08:02:02;20.20;51.60
74153;DHT22;62505;46.070;14.492;2023-02-11T08:04:29;20.20;51.60
74153;DHT22;62505;46.070;14.492;2023-02-11T08:06:56;20.20;51.60
74153;DHT22;62505;46.070;14.492;2023-02-11T08:09:24;20.20;51.60
74153;DHT22;62505;46.070;14.492;2023-02-11T08:11:51;20.20;51.60
74153;DHT22;62505;46.070;14.492;2023-02-11T08:14:18;20.20;51.60
74153;DHT22;62505;46.070;14.492;2023-02-11T08:16:45;20.20;51.60
74153;DHT22;62505;46.070;14.492;2023-02-11T08:19:15;20.20;51.60
74153;DHT22;62505;46.070;14.492;2023-02-11T08:21:42;20.20;51.60
74153;DHT22;62505;46.070;14.492;2023-02-11T08:24:10;20.20;51.50
74153;DHT22;62505;46.070;14.492;2023-02-11T08:26:38;20.20;51.50
74153;DHT22;62505;46.070;14.492;2023-02-11T08:29:08;20.20;51.50
74153;DHT22;62505;46.070;14.492;2023-02-11T08:31:38;20.20;51.60
74153;DHT22;62505;46.070;14.492;2023-02-11T08:34:05;20.20;51.50
74153;DHT22;62505;46.070;14.492;2023-02-11T08:36:36;20.20;51.60
74153;DHT22;62505;46.070;14.492;2023-02-11T08:39:05;20.20;51.60
74153;DHT22;62505;46.070;14.492;2023-02-11T08:41:33;20.20;52.20
74153;DHT22;62505;46.070;14.492;2023-02-11T08:44:02;20.30;51.70
74153;DHT22;62505;46.070;14.492;2023-02-11T08:46:29;20.20;51.60
74153;DHT22;62505;46.070;14.492;2023-02-11T08:48:56;20.20;51.60
74153;DHT22;62505;46.070;14.492;2023-02-11T08:51:25;20.20;51.60
74153;DHT22;62505;46.070;14.492;2023-02-11T08:53:53;20.20;51.60
74153;DHT22;62505;46.070;14.492;2023-02-11T08:56:21;20.20;51.50
74153;DHT22;62505;46.070;14.492;2023-02-11T08:58:50;20.30;51.60
74153;DHT22;62505;46.070;14.492;2023-02-11T09:01:21;20.20;51.50
74153;DHT22;62505;46.070;14.492;2023-02-11T09:03:48;20.20;51.50
74153;DHT22;62505;46.070;14.492;2023-02-11T09:06:18;20.20;51.70
74153;DHT22;62505;46.070;14.492;2023-02-11T09:08:48;20.20;51.90
74153;DHT22;62505;46.070;14.492;2023-02-11T09:11:16;20.20;52.30
74153;DHT22;62505;46.070;14.492;2023-02-11T09:13:44;20.30;52.20
74153;DHT22;62505;46.070;14.492;2023-02-11T09:16:17;20.30;52.30
74153;DHT22;62505;46.070;14.492;2023-02-11T09:18:45;20.30;52.60
74153;DHT22;62505;46.070;14.492;2023-02-11T09:21:12;20.30;52.50
74153;DHT22;62505;46.070;14.492;2023-02-11T09:23:40;20.30;52.60
74153;DHT22;62505;46.070;14.492;2023-02-11T09:26:12;20.30;52.70
74153;DHT22;62505;46.070;14.492;2023-02-11T09:28:39;20.30;52.60
74153;DHT22;62505;46.070;14.492;2023-02-11T09:31:07;20.30;52.60
74153;DHT22;62505;46.070;14.492;2023-02-11T09:33:38;20.30;52.50
74153;DHT22;62505;46.070;14.492;2023-02-11T09:36:07;20.30;52.40
74153;DHT22;62505;46.070;14.492;2023-02-11T09:38:34;20.30;52.30
74153;DHT22;62505;46.070;14.492;2023-02-11T09:41:01;20.30;52.30
74153;DHT22;62505;46.070;14.492;2023-02-11T09:43:35;20.30;52.30
74153;DHT22;62505;46.070;14.492;2023-02-11T09:46:04;20.30;52.30
74153;DHT22;62505;46.070;14.492;2023-02-11T09:48:38;20.30;52.30
74153;DHT22;62505;46.070;14.492;2023-02-11T09:51:15;20.30;52.20
74153;DHT22;62505;46.070;14.492;2023-02-11T09:53:44;20.30;52.20
74153;DHT22;62505;46.070;14.492;2023-02-11T09:56:15;20.30;52.70
74153;DHT22;62505;46.070;14.492;2023-02-11T09:58:43;20.30;52.10
74153;DHT22;62505;46.070;14.492;2023-02-11T10:01:18;20.30;52.10
74153;DHT22;62505;46.070;14.492;2023-02-11T10:04:03;20.30;52.00
74153;DHT22;62505;46.070;14.492;2023-02-11T10:06:38;20.30;52.10
74153;DHT22;62505;46.070;14.492;2023-02-11T10:09:15;20.30;52.10
74153;DHT22;62505;46.070;14.492;2023-02-11T10:11:51;20.30;52.10
74153;DHT22;62505;46.070;14.492;2023-02-11T10:14:36;20.30;52.10
74153;DHT22;62505;46.070;14.492;2023-02-11T10:17:16;20.30;52.00
74153;DHT22;62505;46.070;14.492;2023-02-11T10:19:57;20.30;52.30
74153;DHT22;62505;46.070;14.492;2023-02-11T10:22:33;20.30;52.00
74153;DHT22;62505;46.070;14.492;2023-02-11T10:25:14;20.30;52.20
74153;DHT22;62505;46.070;14.492;2023-02-11T10:27:42;20.40;52.20
74153;DHT22;62505;46.070;14.492;2023-02-11T10:30:22;20.40;52.70
74153;DHT22;62505;46.070;14.492;2023-02-11T10:32:55;20.40;52.70
74153;DHT22;62505;46.070;14.492;2023-02-11T10:35:24;20.40;52.90
74153;DHT22;62505;46.070;14.492;2023-02-11T10:37:53;20.40;53.20
74153;DHT22;62505;46.070;14.492;2023-02-11T10:40:23;20.50;53.20
74153;DHT22;62505;46.070;14.492;2023-02-11T10:42:51;20.40;53.10
74153;DHT22;62505;46.070;14.492;2023-02-11T10:45:24;20.50;53.00
74153;DHT22;62505;46.070;14.492;2023-02-11T10:47:52;20.50;53.50
74153;DHT22;62505;46.070;14.492;2023-02-11T10:50:26;20.50;53.60
74153;DHT22;62505;46.070;14.492;2023-02-11T10:53:11;20.50;53.60
74153;DHT22;62505;46.070;14.492;2023-02-11T10:55:49;20.50;53.80
74153;DHT22;62505;46.070;14.492;2023-02-11T10:58:23;20.50;53.80
74153;DHT22;62505;46.070;14.492;2023-02-11T11:00:53;20.50;53.90
74153;DHT22;62505;46.070;14.492;2023-02-11T11:03:22;20.50;53.90
74153;DHT22;62505;46.070;14.492;2023-02-11T11:05:54;20.50;53.80
74153;DHT22;62505;46.070;14.492;2023-02-11T11:08:21;20.50;53.40
74153;DHT22;62505;46.070;14.492;2023-02-11T11:11:02;20.50;53.40
74153;DHT22;62505;46.070;14.492;2023-02-11T11:13:31;20.50;53.40
74153;DHT22;62505;46.070;14.492;2023-02-11T11:16:15;20.50;53.20
74153;DHT22;62505;46.070;14.492;2023-02-11T11:18:44;20.50;53.30
74153;DHT22;62505;46.070;14.492;2023-02-11T11:21:15;20.50;53.20
74153;DHT22;62505;46.070;14.492;2023-02-11T11:23:49;20.50;53.30
74153;DHT22;62505;46.070;14.492;2023-02-11T11:26:17;20.50;53.20
74153;DHT22;62505;46.070;14.492;2023-02-11T11:28:53;20.50;53.20
74153;DHT22;62505;46.070;14.492;2023-02-11T11:31:23;20.50;53.20
74153;DHT22;62505;46.070;14.492;2023-02-11T11:33:52;20.50;53.20
74153;DHT22;62505;46.070;14.492;2023-02-11T11:36:24;20.50;53.10
74153;DHT22;62505;46.070;14.492;2023-02-11T11:38:57;20.40;53.00
74153;DHT22;62505;46.070;14.492;2023-02-11T11:41:28;20.50;53.00
74153;DHT22;62505;46.070;14.492;2023-02-11T11:44:02;20.50;53.00
74153;DHT22;62505;46.070;14.492;2023-02-11T11:46:32;20.40;52.90
74153;DHT22;62505;46.070;14.492;2023-02-11T11:49:05;20.40;52.90
74153;DHT22;62505;46.070;14.492;2023-02-11T11:51:35;20.40;52.90
74153;DHT22;62505;46.070;14.492;2023-02-11T11:54:10;20.40;52.80
74153;DHT22;62505;46.070;14.492;2023-02-11T11:56:43;20.40;52.80
74153;DHT22;62505;46.070;14.492;2023-02-11T11:59:12;20.40;52.70
74153;DHT22;62505;46.070;14.492;2023-02-11T12:01:49;20.40;52.70
74153;DHT22;62505;46.070;14.492;2023-02-11T12:04:37;20.50;51.70
74153;DHT22;62505;46.070;14.492;2023-02-11T12:07:19;20.60;51.80
74153;DHT22;62505;46.070;14.492;2023-02-11T12:10:03;20.60;52.10
74153;DHT22;62505;46.070;14.492;2023-02-11T12:12:44;20.50;52.10
74153;DHT22;62505;46.070;14.492;2023-02-11T12:15:26;20.50;52.10
74153;DHT22;62505;46.070;14.492;2023-02-11T12:18:12;20.50;52.10
74153;DHT22;62505;46.070;14.492;2023-02-11T12:20:54;20.50;52.10
74153;DHT22;62505;46.070;14.492;2023-02-11T12:23:41;20.50;52.20
74153;DHT22;62505;46.070;14.492;2023-02-11T12:26:14;20.50;52.10
74153;DHT22;62505;46.070;14.492;2023-02-11T12:28:57;20.50;52.10
74153;DHT22;62505;46.070;14.492;2023-02-11T12:31:36;20.50;52.10
74153;DHT22;62505;46.070;14.492;2023-02-11T12:34:28;20.50;52.20
74153;DHT22;62505;46.070;14.492;2023-02-11T12:37:05;20.50;52.20
74153;DHT22;62505;46.070;14.492;2023-02-11T12:39:43;20.50;52.10
74153;DHT22;62505;46.070;14.492;2023-02-11T12:45:33;20.50;52.20
74153;DHT22;62505;46.070;14.492;2023-02-11T12:48:13;20.50;52.20
74153;DHT22;62505;46.070;14.492;2023-02-11T12:50:46;20.40;52.20
74153;DHT22;62505;46.070;14.492;2023-02-11T12:53:48;20.50;52.20
74153;DHT22;62505;46.070;14.492;2023-02-11T12:56:23;20.40;52.20
74153;DHT22;62505;46.070;14.492;2023-02-11T12:58:53;20.40;52.10
74153;DHT22;62505;46.070;14.492;2023-02-11T13:01:25;20.50;52.20
74153;DHT22;62505;46.070;14.492;2023-02-11T13:03:55;20.40;52.10
74153;DHT22;62505;46.070;14.492;2023-02-11T13:06:29;20.50;52.20
74153;DHT22;62505;46.070;14.492;2023-02-11T13:09:02;20.50;52.20
74153;DHT22;62505;46.070;14.492;2023-02-11T13:11:36;20.50;52.20
74153;DHT22;62505;46.070;14.492;2023-02-11T13:14:10;20.40;52.10
74153;DHT22;62505;46.070;14.492;2023-02-11T13:16:40;20.50;52.20
74153;DHT22;62505;46.070;14.492;2023-02-11T13:19:16;20.40;52.10
74153;DHT22;62505;46.070;14.492;2023-02-11T13:21:53;20.40;52.10
74153;DHT22;62505;46.070;14.492;2023-02-11T13:24:25;20.40;52.20
74153;DHT22;62505;46.070;14.492;2023-02-11T13:27:03;20.40;52.10
74153;DHT22;62505;46.070;14.492;2023-02-11T13:29:42;20.40;52.10
74153;DHT22;62505;46.070;14.492;2023-02-11T13:32:14;20.40;52.10
74153;DHT22;62505;46.070;14.492;2023-02-11T13:34:56;20.40;52.10
74153;DHT22;62505;46.070;14.492;2023-02-11T13:37:25;20.40;52.10
74153;DHT22;62505;46.070;14.492;2023-02-11T13:40:02;20.40;52.10
74153;DHT22;62505;46.070;14.492;2023-02-11T13:42:33;20.40;52.10
74153;DHT22;62505;46.070;14.492;2023-02-11T13:45:16;20.40;52.10
74153;DHT22;62505;46.070;14.492;2023-02-11T13:47:44;20.40;52.20
74153;DHT22;62505;46.070;14.492;2023-02-11T13:50:20;20.40;52.20
74153;DHT22;62505;46.070;14.492;2023-02-11T13:52:56;20.40;52.10
74153;DHT22;62505;46.070;14.492;2023-02-11T13:55:25;20.40;52.20
74153;DHT22;62505;46.070;14.492;2023-02-11T13:58:16;20.40;52.20
74153;DHT22;62505;46.070;14.492;2023-02-11T14:00:47;20.40;52.10
74153;DHT22;62505;46.070;14.492;2023-02-11T14:03:25;20.40;52.20
74153;DHT22;62505;46.070;14.492;2023-02-11T14:06:12;20.40;52.20
74153;DHT22;62505;46.070;14.492;2023-02-11T14:09:00;20.40;52.10
74153;DHT22;62505;46.070;14.492;2023-02-11T14:11:43;20.40;52.10
74153;DHT22;62505;46.070;14.492;2023-02-11T14:14:18;20.40;52.20
74153;DHT22;62505;46.070;14.492;2023-02-11T14:17:15;20.40;52.10
74153;DHT22;62505;46.070;14.492;2023-02-11T14:19:46;20.40;52.80
74153;DHT22;62505;46.070;14.492;2023-02-11T14:22:15;20.40;52.20
74153;DHT22;62505;46.070;14.492;2023-02-11T14:24:48;20.40;52.10
74153;DHT22;62505;46.070;14.492;2023-02-11T14:27:23;20.40;52.10
74153;DHT22;62505;46.070;14.492;2023-02-11T14:30:09;20.40;52.10
74153;DHT22;62505;46.070;14.492;2023-02-11T14:32:47;20.50;52.20
74153;DHT22;62505;46.070;14.492;2023-02-11T14:35:22;20.50;52.20
74153;DHT22;62505;46.070;14.492;2023-02-11T14:37:59;20.50;52.10
74153;DHT22;62505;46.070;14.492;2023-02-11T14:40:30;20.50;52.10
74153;DHT22;62505;46.070;14.492;2023-02-11T14:43:05;20.50;52.10
74153;DHT22;62505;46.070;14.492;2023-02-11T14:45:38;20.50;52.10
74153;DHT22;62505;46.070;14.492;2023-02-11T14:48:12;20.50;52.10
74153;DHT22;62505;46.070;14.492;2023-02-11T14:50:43;20.50;52.10
74153;DHT22;62505;46.070;14.492;2023-02-11T14:53:14;20.50;52.10
74153;DHT22;62505;46.070;14.492;2023-02-11T14:55:45;20.50;52.10
74153;DHT22;62505;46.070;14.492;2023-02-11T14:58:15;20.50;52.10
74153;DHT22;62505;46.070;14.492;2023-02-11T15:00:55;20.50;52.10
74153;DHT22;62505;46.070;14.492;2023-02-11T15:03:25;20.50;52.10
74153;DHT22;62505;46.070;14.492;2023-02-11T15:05:56;20.50;52.10
74153;DHT22;62505;46.070;14.492;2023-02-11T15:08:23;20.50;52.20
74153;DHT22;62505;46.070;14.492;2023-02-11T15:10:52;20.50;52.20
74153;DHT22;62505;46.070;14.492;2023-02-11T15:13:22;20.50;52.20
74153;DHT22;62505;46.070;14.492;2023-02-11T15:15:56;20.50;52.20
74153;DHT22;62505;46.070;14.492;2023-02-11T15:18:31;20.50;52.30
74153;DHT22;62505;46.070;14.492;2023-02-11T15:20:59;20.50;52.30
74153;DHT22;62505;46.070;14.492;2023-02-11T15:23:27;20.40;52.20
74153;DHT22;62505;46.070;14.492;2023-02-11T15:25:55;20.50;52.30
74153;DHT22;62505;46.070;14.492;2023-02-11T15:28:24;20.50;52.30
74153;DHT22;62505;46.070;14.492;2023-02-11T15:30:59;20.50;52.30
74153;DHT22;62505;46.070;14.492;2023-02-11T15:33:27;20.50;52.30
74153;DHT22;62505;46.070;14.492;2023-02-11T15:35:57;20.50;52.30
74153;DHT22;62505;46.070;14.492;2023-02-11T15:38:24;20.40;52.30
74153;DHT22;62505;46.070;14.492;2023-02-11T15:40:53;20.50;52.40
74153;DHT22;62505;46.070;14.492;2023-02-11T15:43:21;20.40;52.40
74153;DHT22;62505;46.070;14.492;2023-02-11T15:46:00;20.40;52.30
74153;DHT22;62505;46.070;14.492;2023-02-11T15:48:34;20.50;52.40